sensor_id;sensor_type;location;lat;lon;timestamp;temperature;humidity
19172;DHT22;9718;52.200;21.052;2022-11-15T00:01:09;6.20;99.90
19172;DHT22;9718;52.200;21.052;2022-11-15T00:03:40;6.20;99.90
19172;DHT22;9718;52.200;21.052;2022-11-15T00:06:08;6.30;99.90
19172;DHT22;9718;52.200;21.052;2022-11-15T00:08:36;6.40;99.90
19172;DHT22;9718;52.200;21.052;2022-11-15T00:11:03;6.40;99.90
19172;DHT22;9718;52.200;21.052;2022-11-15T00:13:34;6.40;99.90
19172;DHT22;9718;52.200;21.052;2022-11-15T00:16:02;6.30;99.90
19172;DHT22;9718;52.200;21.052;2022-11-15T00:18:31;6.30;99.90
19172;DHT22;9718;52.200;21.052;2022-11-15T00:21:07;6.30;99.90
19172;DHT22;9718;52.200;21.052;2022-11-15T00:23:35;6.30;99.90
19172;DHT22;9718;52.200;21.052;2022-11-15T00:26:02;6.40;99.90
19172;DHT22;9718;52.200;21.052;2022-11-15T00:28:30;6.40;99.90
19172;DHT22;9718;52.200;21.052;2022-11-15T00:31:02;6.50;99.90
19172;DHT22;9718;52.200;21.052;2022-11-15T00:33:30;6.50;99.90
19172;DHT22;9718;52.200;21.052;2022-11-15T00:36:04;6.50;99.90
19172;DHT22;9718;52.200;21.052;2022-11-15T00:38:33;6.60;99.90
19172;DHT22;9718;52.200;21.052;2022-11-15T00:41:01;6.60;99.90
19172;DHT22;9718;52.200;21.052;2022-11-15T00:43:35;6.60;99.90
19172;DHT22;9718;52.200;21.052;2022-11-15T00:46:03;6.60;99.90
19172;DHT22;9718;52.200;21.052;2022-11-15T00:48:30;6.50;99.90
19172;DHT22;9718;52.200;21.052;2022-11-15T00:50:58;6.60;99.90
19172;DHT22;9718;52.200;21.052;2022-11-15T00:53:25;6.50;99.90
19172;DHT22;9718;52.200;21.052;2022-11-15T00:55:53;6.50;99.90
19172;DHT22;9718;52.200;21.052;2022-11-15T00:58:20;6.40;99.90
19172;DHT22;9718;52.200;21.052;2022-11-15T01:00:47;6.40;99.90
19172;DHT22;9718;52.200;21.052;2022-11-15T01:03:15;6.30;99.90
19172;DHT22;9718;52.200;21.052;2022-11-15T01:05:42;6.30;99.90
19172;DHT22;9718;52.200;21.052;2022-11-15T01:08:15;6.30;99.90
19172;DHT22;9718;52.200;21.052;2022-11-15T01:10:42;6.20;99.90
19172;DHT22;9718;52.200;21.052;2022-11-15T01:13:10;6.20;99.90
19172;DHT22;9718;52.200;21.052;2022-11-15T01:15:41;6.30;99.90
19172;DHT22;9718;52.200;21.052;2022-11-15T01:18:09;6.30;99.90
19172;DHT22;9718;52.200;21.052;2022-11-15T01:20:40;6.40;99.90
19172;DHT22;9718;52.200;21.052;2022-11-15T01:23:09;6.50;99.90
19172;DHT22;9718;52.200;21.052;2022-11-15T01:25:36;6.40;99.90
19172;DHT22;9718;52.200;21.052;2022-11-15T01:28:03;6.40;99.90
19172;DHT22;9718;52.200;21.052;2022-11-15T01:30:31;6.30;99.90
19172;DHT22;9718;52.200;21.052;2022-11-15T01:32:58;6.30;99.90
19172;DHT22;9718;52.200;21.052;2022-11-15T01:35:25;6.30;99.90
19172;DHT22;9718;52.200;21.052;2022-11-15T01:37:53;6.30;99.90
19172;DHT22;9718;52.200;21.052;2022-11-15T01:40:20;6.30;99.90
19172;DHT22;9718;52.200;21.052;2022-11-15T01:42:47;6.30;99.90
19172;DHT22;9718;52.200;21.052;2022-11-15T01:45:15;6.40;99.90
19172;DHT22;9718;52.200;21.052;2022-11-15T01:47:46;6.50;99.90
19172;DHT22;9718;52.200;21.052;2022-11-15T01:50:18;6.30;99.90
19172;DHT22;9718;52.200;21.052;2022-11-15T01:52:48;6.30;99.90
19172;DHT22;9718;52.200;21.052;2022-11-15T01:55:20;6.10;99.90
19172;DHT22;9718;52.200;21.052;2022-11-15T01:57:51;6.10;99.90
19172;DHT22;9718;52.200;21.052;2022-11-15T02:00:19;6.10;99.90
19172;DHT22;9718;52.200;21.052;2022-11-15T02:02:47;6.00;99.90
19172;DHT22;9718;52.200;21.052;2022-11-15T02:05:15;5.90;99.90
19172;DHT22;9718;52.200;21.052;2022-11-15T02:07:42;6.00;99.90
19172;DHT22;9718;52.200;21.052;2022-11-15T02:10:18;6.00;99.90
19172;DHT22;9718;52.200;21.052;2022-11-15T02:12:48;6.00;99.90
19172;DHT22;9718;52.200;21.052;2022-11-15T02:15:15;6.00;99.90
19172;DHT22;9718;52.200;21.052;2022-11-15T02:18:06;6.00;99.90
19172;DHT22;9718;52.200;21.052;2022-11-15T02:20:39;6.00;99.90
19172;DHT22;9718;52.200;21.052;2022-11-15T02:29:14;6.00;99.90
19172;DHT22;9718;52.200;21.052;2022-11-15T02:34:44;6.10;99.90
19172;DHT22;9718;52.200;21.052;2022-11-15T02:37:39;6.10;99.90
19172;DHT22;9718;52.200;21.052;2022-11-15T02:42:35;6.10;99.90
19172;DHT22;9718;52.200;21.052;2022-11-15T02:45:39;6.10;99.90
19172;DHT22;9718;52.200;21.052;2022-11-15T02:48:09;6.10;99.90
19172;DHT22;9718;52.200;21.052;2022-11-15T02:50:38;6.10;99.90
19172;DHT22;9718;52.200;21.052;2022-11-15T02:53:07;6.10;99.90
19172;DHT22;9718;52.200;21.052;2022-11-15T02:55:37;6.10;99.90
19172;DHT22;9718;52.200;21.052;2022-11-15T03:01:05;6.10;99.90
19172;DHT22;9718;52.200;21.052;2022-11-15T03:07:15;6.20;99.90
19172;DHT22;9718;52.200;21.052;2022-11-15T03:09:56;6.10;99.90
19172;DHT22;9718;52.200;21.052;2022-11-15T03:12:30;6.10;99.90
19172;DHT22;9718;52.200;21.052;2022-11-15T03:15:12;6.10;99.90
19172;DHT22;9718;52.200;21.052;2022-11-15T03:17:51;6.20;99.90
19172;DHT22;9718;52.200;21.052;2022-11-15T03:20:20;6.10;99.90
19172;DHT22;9718;52.200;21.052;2022-11-15T03:22:48;6.10;99.90
19172;DHT22;9718;52.200;21.052;2022-11-15T03:25:19;6.10;99.90
19172;DHT22;9718;52.200;21.052;2022-11-15T03:27:51;6.20;99.90
19172;DHT22;9718;52.200;21.052;2022-11-15T03:30:19;6.20;99.90
19172;DHT22;9718;52.200;21.052;2022-11-15T03:32:50;6.20;99.90
19172;DHT22;9718;52.200;21.052;2022-11-15T03:35:22;6.10;99.90
19172;DHT22;9718;52.200;21.052;2022-11-15T03:38:25;6.20;99.90
19172;DHT22;9718;52.200;21.052;2022-11-15T03:46:33;6.20;99.90
19172;DHT22;9718;52.200;21.052;2022-11-15T03:49:11;6.20;99.90
19172;DHT22;9718;52.200;21.052;2022-11-15T03:51:40;6.10;99.90
19172;DHT22;9718;52.200;21.052;2022-11-15T03:54:07;6.10;99.90
19172;DHT22;9718;52.200;21.052;2022-11-15T03:56:35;6.20;99.90
19172;DHT22;9718;52.200;21.052;2022-11-15T03:59:02;6.10;99.90
19172;DHT22;9718;52.200;21.052;2022-11-15T04:01:29;6.10;99.90
19172;DHT22;9718;52.200;21.052;2022-11-15T04:03:56;6.10;99.90
19172;DHT22;9718;52.200;21.052;2022-11-15T04:06:24;6.10;99.90
19172;DHT22;9718;52.200;21.052;2022-11-15T04:08:51;6.00;99.90
19172;DHT22;9718;52.200;21.052;2022-11-15T04:11:18;6.00;99.90
19172;DHT22;9718;52.200;21.052;2022-11-15T04:13:45;6.00;99.90
19172;DHT22;9718;52.200;21.052;2022-11-15T04:16:12;6.10;99.90
19172;DHT22;9718;52.200;21.052;2022-11-15T04:18:43;6.00;99.90
19172;DHT22;9718;52.200;21.052;2022-11-15T04:21:11;6.00;99.90
19172;DHT22;9718;52.200;21.052;2022-11-15T04:23:56;6.00;99.90
19172;DHT22;9718;52.200;21.052;2022-11-15T04:26:42;6.00;99.90
19172;DHT22;9718;52.200;21.052;2022-11-15T04:29:09;6.10;99.90
19172;DHT22;9718;52.200;21.052;2022-11-15T04:31:55;6.10;99.90
19172;DHT22;9718;52.200;21.052;2022-11-15T04:34:22;6.10;99.90
19172;DHT22;9718;52.200;21.052;2022-11-15T04:36:49;6.10;99.90
19172;DHT22;9718;52.200;21.052;2022-11-15T04:39:35;6.10;99.90
19172;DHT22;9718;52.200;21.052;2022-11-15T04:42:02;6.10;99.90
19172;DHT22;9718;52.200;21.052;2022-11-15T04:44:30;6.00;99.90
19172;DHT22;9718;52.200;21.052;2022-11-15T04:46:57;6.10;99.90
19172;DHT22;9718;52.200;21.052;2022-11-15T04:49:24;6.00;99.90
19172;DHT22;9718;52.200;21.052;2022-11-15T04:51:52;6.00;99.90
19172;DHT22;9718;52.200;21.052;2022-11-15T04:54:19;6.00;99.90
19172;DHT22;9718;52.200;21.052;2022-11-15T04:56:46;6.00;99.90
19172;DHT22;9718;52.200;21.052;2022-11-15T04:59:13;5.80;99.90
19172;DHT22;9718;52.200;21.052;2022-11-15T05:01:41;5.80;99.90
19172;DHT22;9718;52.200;21.052;2022-11-15T05:04:11;5.70;99.90
19172;DHT22;9718;52.200;21.052;2022-11-15T05:06:49;5.70;99.90
19172;DHT22;9718;52.200;21.052;2022-11-15T05:09:18;5.80;99.90
19172;DHT22;9718;52.200;21.052;2022-11-15T05:11:46;5.80;99.90
19172;DHT22;9718;52.200;21.052;2022-11-15T05:14:14;5.90;99.90
19172;DHT22;9718;52.200;21.052;2022-11-15T05:16:42;5.80;99.90
19172;DHT22;9718;52.200;21.052;2022-11-15T05:19:10;5.90;99.90
19172;DHT22;9718;52.200;21.052;2022-11-15T05:21:37;5.80;99.90
19172;DHT22;9718;52.200;21.052;2022-11-15T05:24:06;5.80;99.90
19172;DHT22;9718;52.200;21.052;2022-11-15T05:26:33;5.80;99.90
19172;DHT22;9718;52.200;21.052;2022-11-15T05:29:00;5.80;99.90
19172;DHT22;9718;52.200;21.052;2022-11-15T05:31:28;5.70;99.90
19172;DHT22;9718;52.200;21.052;2022-11-15T05:33:56;5.60;99.90
19172;DHT22;9718;52.200;21.052;2022-11-15T05:36:37;5.60;99.90
19172;DHT22;9718;52.200;21.052;2022-11-15T05:39:06;5.60;99.90
19172;DHT22;9718;52.200;21.052;2022-11-15T05:41:49;5.70;99.90
19172;DHT22;9718;52.200;21.052;2022-11-15T05:44:21;5.70;99.90
19172;DHT22;9718;52.200;21.052;2022-11-15T05:46:50;5.70;99.90
19172;DHT22;9718;52.200;21.052;2022-11-15T05:49:23;5.60;99.90
19172;DHT22;9718;52.200;21.052;2022-11-15T05:51:51;5.50;99.90
19172;DHT22;9718;52.200;21.052;2022-11-15T05:54:20;5.50;99.90
19172;DHT22;9718;52.200;21.052;2022-11-15T05:56:48;5.50;99.90
19172;DHT22;9718;52.200;21.052;2022-11-15T05:59:16;5.50;99.90
19172;DHT22;9718;52.200;21.052;2022-11-15T06:01:44;5.50;99.90
19172;DHT22;9718;52.200;21.052;2022-11-15T06:04:11;5.50;99.90
19172;DHT22;9718;52.200;21.052;2022-11-15T06:06:38;5.50;99.90
19172;DHT22;9718;52.200;21.052;2022-11-15T06:09:05;5.50;99.90
19172;DHT22;9718;52.200;21.052;2022-11-15T06:11:33;5.40;99.90
19172;DHT22;9718;52.200;21.052;2022-11-15T06:14:00;5.50;99.90
19172;DHT22;9718;52.200;21.052;2022-11-15T06:16:28;5.60;99.90
19172;DHT22;9718;52.200;21.052;2022-11-15T06:18:56;5.60;99.90
19172;DHT22;9718;52.200;21.052;2022-11-15T06:21:23;5.60;99.90
19172;DHT22;9718;52.200;21.052;2022-11-15T06:23:51;5.50;99.90
19172;DHT22;9718;52.200;21.052;2022-11-15T06:26:19;5.50;99.90
19172;DHT22;9718;52.200;21.052;2022-11-15T06:28:46;5.50;99.90
19172;DHT22;9718;52.200;21.052;2022-11-15T06:31:14;5.60;99.90
19172;DHT22;9718;52.200;21.052;2022-11-15T06:33:42;5.60;99.90
19172;DHT22;9718;52.200;21.052;2022-11-15T06:36:26;5.70;99.90
19172;DHT22;9718;52.200;21.052;2022-11-15T06:38:54;5.60;99.90
19172;DHT22;9718;52.200;21.052;2022-11-15T06:41:22;5.60;99.90
19172;DHT22;9718;52.200;21.052;2022-11-15T06:43:49;5.60;99.90
19172;DHT22;9718;52.200;21.052;2022-11-15T06:46:16;5.60;99.90
19172;DHT22;9718;52.200;21.052;2022-11-15T06:48:44;5.60;99.90
19172;DHT22;9718;52.200;21.052;2022-11-15T06:51:11;5.60;99.90
19172;DHT22;9718;52.200;21.052;2022-11-15T06:53:42;5.50;99.90
19172;DHT22;9718;52.200;21.052;2022-11-15T06:56:09;5.50;99.90
19172;DHT22;9718;52.200;21.052;2022-11-15T06:58:37;5.50;99.90
19172;DHT22;9718;52.200;21.052;2022-11-15T07:01:08;5.60;99.90
19172;DHT22;9718;52.200;21.052;2022-11-15T07:03:41;5.60;99.90
19172;DHT22;9718;52.200;21.052;2022-11-15T07:06:09;5.60;99.90
19172;DHT22;9718;52.200;21.052;2022-11-15T07:08:37;5.60;99.90
19172;DHT22;9718;52.200;21.052;2022-11-15T07:11:06;5.50;99.90
19172;DHT22;9718;52.200;21.052;2022-11-15T07:13:35;5.60;99.90
19172;DHT22;9718;52.200;21.052;2022-11-15T07:16:09;5.60;99.90
19172;DHT22;9718;52.200;21.052;2022-11-15T07:18:38;5.60;99.90
19172;DHT22;9718;52.200;21.052;2022-11-15T07:21:08;5.60;99.90
19172;DHT22;9718;52.200;21.052;2022-11-15T07:23:37;5.60;99.90
19172;DHT22;9718;52.200;21.052;2022-11-15T07:26:08;5.60;99.90
19172;DHT22;9718;52.200;21.052;2022-11-15T07:28:36;5.80;99.90
19172;DHT22;9718;52.200;21.052;2022-11-15T07:31:05;5.80;99.90
19172;DHT22;9718;52.200;21.052;2022-11-15T07:33:33;5.70;99.90
19172;DHT22;9718;52.200;21.052;2022-11-15T07:36:05;5.70;99.90
19172;DHT22;9718;52.200;21.052;2022-11-15T07:38:34;5.60;99.90
19172;DHT22;9718;52.200;21.052;2022-11-15T07:41:09;5.70;99.90
19172;DHT22;9718;52.200;21.052;2022-11-15T07:43:37;5.70;99.90
19172;DHT22;9718;52.200;21.052;2022-11-15T07:46:06;5.70;99.90
19172;DHT22;9718;52.200;21.052;2022-11-15T07:48:38;5.70;99.90
19172;DHT22;9718;52.200;21.052;2022-11-15T07:51:12;5.60;99.90
19172;DHT22;9718;52.200;21.052;2022-11-15T07:53:44;5.70;99.90
19172;DHT22;9718;52.200;21.052;2022-11-15T07:56:12;5.60;99.90
19172;DHT22;9718;52.200;21.052;2022-11-15T07:58:42;5.60;99.90
19172;DHT22;9718;52.200;21.052;2022-11-15T08:01:10;5.60;99.90
19172;DHT22;9718;52.200;21.052;2022-11-15T08:03:38;5.60;99.90
19172;DHT22;9718;52.200;21.052;2022-11-15T08:06:05;5.60;99.90
19172;DHT22;9718;52.200;21.052;2022-11-15T08:08:34;5.50;99.90
19172;DHT22;9718;52.200;21.052;2022-11-15T08:11:01;5.60;99.90
19172;DHT22;9718;52.200;21.052;2022-11-15T08:13:29;5.80;99.90
19172;DHT22;9718;52.200;21.052;2022-11-15T08:16:01;6.00;99.90
19172;DHT22;9718;52.200;21.052;2022-11-15T08:18:29;6.30;99.90
19172;DHT22;9718;52.200;21.052;2022-11-15T08:21:01;6.30;99.90
19172;DHT22;9718;52.200;21.052;2022-11-15T08:23:29;6.20;99.90
19172;DHT22;9718;52.200;21.052;2022-11-15T08:26:01;6.10;99.90
19172;DHT22;9718;52.200;21.052;2022-11-15T08:28:30;5.90;99.90
19172;DHT22;9718;52.200;21.052;2022-11-15T08:30:57;5.80;99.90
19172;DHT22;9718;52.200;21.052;2022-11-15T08:33:25;5.80;99.90
19172;DHT22;9718;52.200;21.052;2022-11-15T08:35:56;5.70;99.90
19172;DHT22;9718;52.200;21.052;2022-11-15T08:38:24;5.60;99.90
19172;DHT22;9718;52.200;21.052;2022-11-15T08:40:53;5.60;99.90
19172;DHT22;9718;52.200;21.052;2022-11-15T08:43:25;5.60;99.90
19172;DHT22;9718;52.200;21.052;2022-11-15T08:45:56;5.70;99.90
19172;DHT22;9718;52.200;21.052;2022-11-15T08:48:25;5.70;99.90
19172;DHT22;9718;52.200;21.052;2022-11-15T08:50:56;5.70;99.90
19172;DHT22;9718;52.200;21.052;2022-11-15T08:53:24;5.90;99.90
19172;DHT22;9718;52.200;21.052;2022-11-15T08:55:52;5.90;99.90
19172;DHT22;9718;52.200;21.052;2022-11-15T08:58:21;6.00;99.90
19172;DHT22;9718;52.200;21.052;2022-11-15T09:00:48;6.00;99.90
19172;DHT22;9718;52.200;21.052;2022-11-15T09:03:18;6.00;99.90
19172;DHT22;9718;52.200;21.052;2022-11-15T09:05:45;6.00;99.90
19172;DHT22;9718;52.200;21.052;2022-11-15T09:08:12;6.00;99.90
19172;DHT22;9718;52.200;21.052;2022-11-15T09:11:06;6.20;99.90
19172;DHT22;9718;52.200;21.052;2022-11-15T09:13:34;6.20;99.90
19172;DHT22;9718;52.200;21.052;2022-11-15T09:16:04;6.10;99.90
19172;DHT22;9718;52.200;21.052;2022-11-15T09:18:32;6.00;99.90
19172;DHT22;9718;52.200;21.052;2022-11-15T09:21:00;6.10;99.90
19172;DHT22;9718;52.200;21.052;2022-11-15T09:23:30;6.30;99.90
19172;DHT22;9718;52.200;21.052;2022-11-15T09:25:59;6.30;99.90
19172;DHT22;9718;52.200;21.052;2022-11-15T09:28:29;6.30;99.90
19172;DHT22;9718;52.200;21.052;2022-11-15T09:33:27;6.40;99.90
19172;DHT22;9718;52.200;21.052;2022-11-15T09:36:03;6.40;99.90
19172;DHT22;9718;52.200;21.052;2022-11-15T09:38:31;6.30;99.90
19172;DHT22;9718;52.200;21.052;2022-11-15T09:49:01;6.00;99.90
19172;DHT22;9718;52.200;21.052;2022-11-15T09:51:37;6.00;99.90
19172;DHT22;9718;52.200;21.052;2022-11-15T09:57:37;6.10;99.90
19172;DHT22;9718;52.200;21.052;2022-11-15T10:05:48;6.30;99.90
19172;DHT22;9718;52.200;21.052;2022-11-15T10:11:26;6.10;99.90
19172;DHT22;9718;52.200;21.052;2022-11-15T10:14:21;6.20;99.90
19172;DHT22;9718;52.200;21.052;2022-11-15T10:17:18;6.20;99.90
19172;DHT22;9718;52.200;21.052;2022-11-15T10:25:42;6.30;99.90
19172;DHT22;9718;52.200;21.052;2022-11-15T10:28:17;6.20;99.90
19172;DHT22;9718;52.200;21.052;2022-11-15T10:30:52;6.20;99.90
19172;DHT22;9718;52.200;21.052;2022-11-15T10:38:51;6.30;99.90
19172;DHT22;9718;52.200;21.052;2022-11-15T10:46:45;6.50;99.90
19172;DHT22;9718;52.200;21.052;2022-11-15T10:49:23;6.60;99.90
19172;DHT22;9718;52.200;21.052;2022-11-15T10:52:18;6.70;99.90
19172;DHT22;9718;52.200;21.052;2022-11-15T10:55:01;6.70;99.90
19172;DHT22;9718;52.200;21.052;2022-11-15T10:57:33;6.70;99.90
19172;DHT22;9718;52.200;21.052;2022-11-15T11:05:38;6.70;99.90
19172;DHT22;9718;52.200;21.052;2022-11-15T11:11:03;6.50;99.90
19172;DHT22;9718;52.200;21.052;2022-11-15T11:13:37;6.60;99.90
19172;DHT22;9718;52.200;21.052;2022-11-15T11:19:16;6.50;99.90
19172;DHT22;9718;52.200;21.052;2022-11-15T11:24:36;6.60;99.90
19172;DHT22;9718;52.200;21.052;2022-11-15T11:30:17;6.80;99.90
19172;DHT22;9718;52.200;21.052;2022-11-15T11:32:53;6.90;99.90
19172;DHT22;9718;52.200;21.052;2022-11-15T11:38:39;7.30;99.90
19172;DHT22;9718;52.200;21.052;2022-11-15T11:47:01;7.00;99.90
19172;DHT22;9718;52.200;21.052;2022-11-15T11:49:51;7.10;99.90
19172;DHT22;9718;52.200;21.052;2022-11-15T11:52:33;7.20;99.90
19172;DHT22;9718;52.200;21.052;2022-11-15T11:55:24;7.30;99.90
19172;DHT22;9718;52.200;21.052;2022-11-15T12:00:26;7.10;99.90
19172;DHT22;9718;52.200;21.052;2022-11-15T12:03:09;7.10;99.90
19172;DHT22;9718;52.200;21.052;2022-11-15T12:05:49;6.90;99.90
19172;DHT22;9718;52.200;21.052;2022-11-15T12:11:03;7.20;99.90
19172;DHT22;9718;52.200;21.052;2022-11-15T12:13:34;7.20;99.90
19172;DHT22;9718;52.200;21.052;2022-11-15T12:16:21;7.30;99.90
19172;DHT22;9718;52.200;21.052;2022-11-15T12:19:03;7.20;99.90
19172;DHT22;9718;52.200;21.052;2022-11-15T12:21:55;7.30;99.90
19172;DHT22;9718;52.200;21.052;2022-11-15T12:25:02;7.40;99.90
19172;DHT22;9718;52.200;21.052;2022-11-15T12:30:45;7.50;99.90
19172;DHT22;9718;52.200;21.052;2022-11-15T12:33:42;7.40;99.90
19172;DHT22;9718;52.200;21.052;2022-11-15T13:17:54;7.60;99.90
19172;DHT22;9718;52.200;21.052;2022-11-15T13:20:31;7.50;99.90
19172;DHT22;9718;52.200;21.052;2022-11-15T13:30:49;8.10;99.90
19172;DHT22;9718;52.200;21.052;2022-11-15T13:33:20;8.10;99.90
19172;DHT22;9718;52.200;21.052;2022-11-15T13:35:52;7.80;99.90
19172;DHT22;9718;52.200;21.052;2022-11-15T13:40:55;7.50;99.90
19172;DHT22;9718;52.200;21.052;2022-11-15T13:46:05;7.70;99.90
19172;DHT22;9718;52.200;21.052;2022-11-15T13:48:33;7.80;99.90
19172;DHT22;9718;52.200;21.052;2022-11-15T13:51:04;7.70;99.90
19172;DHT22;9718;52.200;21.052;2022-11-15T13:53:33;7.70;99.90
19172;DHT22;9718;52.200;21.052;2022-11-15T13:56:05;7.70;99.90
19172;DHT22;9718;52.200;21.052;2022-11-15T13:58:32;7.70;99.90
19172;DHT22;9718;52.200;21.052;2022-11-15T14:01:03;7.70;99.90
19172;DHT22;9718;52.200;21.052;2022-11-15T14:03:34;7.70;99.90
19172;DHT22;9718;52.200;21.052;2022-11-15T14:06:11;7.80;99.90
19172;DHT22;9718;52.200;21.052;2022-11-15T14:08:40;7.80;99.90
19172;DHT22;9718;52.200;21.052;2022-11-15T14:11:19;7.90;99.90
19172;DHT22;9718;52.200;21.052;2022-11-15T14:16:41;7.90;99.90
19172;DHT22;9718;52.200;21.052;2022-11-15T14:22:23;7.70;99.90
19172;DHT22;9718;52.200;21.052;2022-11-15T14:27:44;7.80;99.90
19172;DHT22;9718;52.200;21.052;2022-11-15T14:30:17;7.70;99.90
19172;DHT22;9718;52.200;21.052;2022-11-15T14:32:47;7.70;99.90
19172;DHT22;9718;52.200;21.052;2022-11-15T14:35:20;7.60;99.90
19172;DHT22;9718;52.200;21.052;2022-11-15T14:37:48;7.60;99.90
19172;DHT22;9718;52.200;21.052;2022-11-15T14:40:18;7.60;99.90
19172;DHT22;9718;52.200;21.052;2022-11-15T14:42:47;7.60;99.90
19172;DHT22;9718;52.200;21.052;2022-11-15T14:45:20;7.60;99.90
19172;DHT22;9718;52.200;21.052;2022-11-15T14:47:48;7.60;99.90
19172;DHT22;9718;52.200;21.052;2022-11-15T14:50:18;7.60;99.90
19172;DHT22;9718;52.200;21.052;2022-11-15T14:52:47;7.70;99.90
19172;DHT22;9718;52.200;21.052;2022-11-15T14:55:21;7.60;99.90
19172;DHT22;9718;52.200;21.052;2022-11-15T14:57:51;7.60;99.90
19172;DHT22;9718;52.200;21.052;2022-11-15T15:00:19;7.50;99.90
19172;DHT22;9718;52.200;21.052;2022-11-15T15:02:48;7.50;99.90
19172;DHT22;9718;52.200;21.052;2022-11-15T15:05:24;7.40;99.90
19172;DHT22;9718;52.200;21.052;2022-11-15T15:07:58;7.40;99.90
19172;DHT22;9718;52.200;21.052;2022-11-15T15:10:33;7.40;99.90
19172;DHT22;9718;52.200;21.052;2022-11-15T15:13:23;7.40;99.90
19172;DHT22;9718;52.200;21.052;2022-11-15T15:15:51;7.50;99.90
19172;DHT22;9718;52.200;21.052;2022-11-15T15:18:19;7.50;99.90
19172;DHT22;9718;52.200;21.052;2022-11-15T15:20:57;7.40;99.90
19172;DHT22;9718;52.200;21.052;2022-11-15T15:23:30;7.40;99.90
19172;DHT22;9718;52.200;21.052;2022-11-15T15:25:58;7.30;99.90
19172;DHT22;9718;52.200;21.052;2022-11-15T15:28:25;7.30;99.90
19172;DHT22;9718;52.200;21.052;2022-11-15T15:31:00;7.20;99.90
19172;DHT22;9718;52.200;21.052;2022-11-15T15:33:27;7.30;99.90
19172;DHT22;9718;52.200;21.052;2022-11-15T15:35:55;7.30;99.90
19172;DHT22;9718;52.200;21.052;2022-11-15T15:38:22;7.30;99.90
19172;DHT22;9718;52.200;21.052;2022-11-15T15:40:50;7.30;99.90
19172;DHT22;9718;52.200;21.052;2022-11-15T15:43:18;7.30;99.90
19172;DHT22;9718;52.200;21.052;2022-11-15T15:45:45;7.30;99.90
19172;DHT22;9718;52.200;21.052;2022-11-15T15:48:14;7.30;99.90
19172;DHT22;9718;52.200;21.052;2022-11-15T15:50:42;7.30;99.90
19172;DHT22;9718;52.200;21.052;2022-11-15T15:53:11;7.30;99.90
19172;DHT22;9718;52.200;21.052;2022-11-15T15:55:39;7.30;99.90
19172;DHT22;9718;52.200;21.052;2022-11-15T15:58:06;7.10;99.90
19172;DHT22;9718;52.200;21.052;2022-11-15T16:00:35;7.10;99.90
19172;DHT22;9718;52.200;21.052;2022-11-15T16:03:04;7.10;99.90
19172;DHT22;9718;52.200;21.052;2022-11-15T16:05:31;7.10;99.90
19172;DHT22;9718;52.200;21.052;2022-11-15T16:07:58;7.10;99.90
19172;DHT22;9718;52.200;21.052;2022-11-15T16:10:28;7.10;99.90
19172;DHT22;9718;52.200;21.052;2022-11-15T16:12:57;7.10;99.90
19172;DHT22;9718;52.200;21.052;2022-11-15T16:15:26;7.00;99.90
19172;DHT22;9718;52.200;21.052;2022-11-15T16:17:56;7.00;99.90
19172;DHT22;9718;52.200;21.052;2022-11-15T16:20:33;7.00;99.90
19172;DHT22;9718;52.200;21.052;2022-11-15T16:23:03;7.10;99.90
19172;DHT22;9718;52.200;21.052;2022-11-15T16:33:29;6.80;99.90
19172;DHT22;9718;52.200;21.052;2022-11-15T16:35:57;6.80;99.90
19172;DHT22;9718;52.200;21.052;2022-11-15T16:38:24;6.90;99.90
19172;DHT22;9718;52.200;21.052;2022-11-15T16:40:53;6.80;99.90
19172;DHT22;9718;52.200;21.052;2022-11-15T16:43:20;6.80;99.90
19172;DHT22;9718;52.200;21.052;2022-11-15T16:45:49;6.70;99.90
19172;DHT22;9718;52.200;21.052;2022-11-15T16:48:27;6.60;99.90
19172;DHT22;9718;52.200;21.052;2022-11-15T16:50:55;6.70;99.90
19172;DHT22;9718;52.200;21.052;2022-11-15T16:53:25;6.70;99.90
19172;DHT22;9718;52.200;21.052;2022-11-15T16:55:53;6.50;99.90
19172;DHT22;9718;52.200;21.052;2022-11-15T16:58:21;6.60;99.90
19172;DHT22;9718;52.200;21.052;2022-11-15T17:00:52;6.60;99.90
19172;DHT22;9718;52.200;21.052;2022-11-15T17:03:23;6.50;99.90
19172;DHT22;9718;52.200;21.052;2022-11-15T17:05:51;6.60;99.90
19172;DHT22;9718;52.200;21.052;2022-11-15T17:08:19;6.50;99.90
19172;DHT22;9718;52.200;21.052;2022-11-15T17:10:55;6.60;99.90
19172;DHT22;9718;52.200;21.052;2022-11-15T17:13:22;6.50;99.90
19172;DHT22;9718;52.200;21.052;2022-11-15T17:15:49;6.50;99.90
19172;DHT22;9718;52.200;21.052;2022-11-15T17:18:17;6.50;99.90
19172;DHT22;9718;52.200;21.052;2022-11-15T17:20:45;6.40;99.90
19172;DHT22;9718;52.200;21.052;2022-11-15T17:23:13;6.40;99.90
19172;DHT22;9718;52.200;21.052;2022-11-15T17:25:41;6.40;99.90
19172;DHT22;9718;52.200;21.052;2022-11-15T17:28:09;6.40;99.90
19172;DHT22;9718;52.200;21.052;2022-11-15T17:30:40;6.40;99.90
19172;DHT22;9718;52.200;21.052;2022-11-15T17:33:07;6.50;99.90
19172;DHT22;9718;52.200;21.052;2022-11-15T17:35:35;6.50;99.90
19172;DHT22;9718;52.200;21.052;2022-11-15T17:38:02;6.40;99.90
19172;DHT22;9718;52.200;21.052;2022-11-15T17:40:29;6.50;99.90
19172;DHT22;9718;52.200;21.052;2022-11-15T17:42:57;6.50;99.90
19172;DHT22;9718;52.200;21.052;2022-11-15T17:45:24;6.50;99.90
19172;DHT22;9718;52.200;21.052;2022-11-15T17:47:51;6.50;99.90
19172;DHT22;9718;52.200;21.052;2022-11-15T17:50:19;6.40;99.90
19172;DHT22;9718;52.200;21.052;2022-11-15T17:52:47;6.40;99.90
19172;DHT22;9718;52.200;21.052;2022-11-15T17:55:14;6.40;99.90
19172;DHT22;9718;52.200;21.052;2022-11-15T17:57:42;6.40;99.90
19172;DHT22;9718;52.200;21.052;2022-11-15T18:00:10;6.40;99.90
19172;DHT22;9718;52.200;21.052;2022-11-15T18:02:38;6.30;99.90
19172;DHT22;9718;52.200;21.052;2022-11-15T18:05:06;6.40;99.90
19172;DHT22;9718;52.200;21.052;2022-11-15T18:07:33;6.30;99.90
19172;DHT22;9718;52.200;21.052;2022-11-15T18:10:00;6.30;99.90
19172;DHT22;9718;52.200;21.052;2022-11-15T18:12:31;6.30;99.90
19172;DHT22;9718;52.200;21.052;2022-11-15T18:14:58;6.30;99.90
19172;DHT22;9718;52.200;21.052;2022-11-15T18:17:26;6.20;99.90
19172;DHT22;9718;52.200;21.052;2022-11-15T18:19:54;6.30;99.90
19172;DHT22;9718;52.200;21.052;2022-11-15T18:22:21;6.20;99.90
19172;DHT22;9718;52.200;21.052;2022-11-15T18:24:51;6.10;99.90
19172;DHT22;9718;52.200;21.052;2022-11-15T18:27:18;6.00;99.90
19172;DHT22;9718;52.200;21.052;2022-11-15T18:29:46;5.90;99.90
19172;DHT22;9718;52.200;21.052;2022-11-15T18:32:13;5.90;99.90
19172;DHT22;9718;52.200;21.052;2022-11-15T18:34:44;5.80;99.90
19172;DHT22;9718;52.200;21.052;2022-11-15T18:37:12;5.90;99.90
19172;DHT22;9718;52.200;21.052;2022-11-15T18:39:39;5.80;99.90
19172;DHT22;9718;52.200;21.052;2022-11-15T18:42:06;6.00;99.90
19172;DHT22;9718;52.200;21.052;2022-11-15T18:44:33;5.90;99.90
19172;DHT22;9718;52.200;21.052;2022-11-15T18:47:02;5.90;99.90
19172;DHT22;9718;52.200;21.052;2022-11-15T18:49:29;5.80;99.90
19172;DHT22;9718;52.200;21.052;2022-11-15T18:51:57;5.80;99.90
19172;DHT22;9718;52.200;21.052;2022-11-15T18:54:26;5.80;99.90
19172;DHT22;9718;52.200;21.052;2022-11-15T18:56:58;5.80;99.90